sensor_id;sensor_type;location;lat;lon;timestamp;temperature;humidity
22416;DHT22;12204;50.600;4.608;2022-11-12T00:02:06;21.50;82.20
22416;DHT22;12204;50.600;4.608;2022-11-12T00:07:29;21.50;81.90
22416;DHT22;12204;50.600;4.608;2022-11-12T00:12:53;21.50;82.10
22416;DHT22;12204;50.600;4.608;2022-11-12T00:18:15;21.50;81.80
22416;DHT22;12204;50.600;4.608;2022-11-12T00:23:37;21.50;81.90
22416;DHT22;12204;50.600;4.608;2022-11-12T00:29:00;21.50;81.80
22416;DHT22;12204;50.600;4.608;2022-11-12T00:34:23;21.50;81.90
22416;DHT22;12204;50.600;4.608;2022-11-12T00:39:45;21.50;81.90
22416;DHT22;12204;50.600;4.608;2022-11-12T00:45:09;21.50;81.90
22416;DHT22;12204;50.600;4.608;2022-11-12T00:50:31;21.50;81.90
22416;DHT22;12204;50.600;4.608;2022-11-12T00:55:59;21.50;82.10
22416;DHT22;12204;50.600;4.608;2022-11-12T01:01:23;21.50;82.20
22416;DHT22;12204;50.600;4.608;2022-11-12T01:06:46;21.50;82.20
22416;DHT22;12204;50.600;4.608;2022-11-12T01:12:08;21.50;82.30
22416;DHT22;12204;50.600;4.608;2022-11-12T01:17:32;21.50;82.20
22416;DHT22;12204;50.600;4.608;2022-11-12T01:22:54;21.50;82.20
22416;DHT22;12204;50.600;4.608;2022-11-12T01:28:16;21.50;82.30
22416;DHT22;12204;50.600;4.608;2022-11-12T01:33:41;21.50;82.30
22416;DHT22;12204;50.600;4.608;2022-11-12T01:39:05;21.50;82.30
22416;DHT22;12204;50.600;4.608;2022-11-12T01:44:30;21.50;82.30
22416;DHT22;12204;50.600;4.608;2022-11-12T01:49:57;21.50;82.40
22416;DHT22;12204;50.600;4.608;2022-11-12T01:55:24;21.50;82.40
22416;DHT22;12204;50.600;4.608;2022-11-12T02:00:50;21.40;82.40
22416;DHT22;12204;50.600;4.608;2022-11-12T02:06:15;21.50;82.50
22416;DHT22;12204;50.600;4.608;2022-11-12T02:11:38;21.40;82.30
22416;DHT22;12204;50.600;4.608;2022-11-12T02:17:00;21.50;82.60
22416;DHT22;12204;50.600;4.608;2022-11-12T02:22:24;21.50;82.80
22416;DHT22;12204;50.600;4.608;2022-11-12T02:27:47;21.50;82.50
22416;DHT22;12204;50.600;4.608;2022-11-12T02:33:11;21.50;82.80
22416;DHT22;12204;50.600;4.608;2022-11-12T02:38:34;21.50;82.70
22416;DHT22;12204;50.600;4.608;2022-11-12T02:43:57;21.40;83.30
22416;DHT22;12204;50.600;4.608;2022-11-12T02:49:19;21.40;82.40
22416;DHT22;12204;50.600;4.608;2022-11-12T02:54:42;21.40;82.40
22416;DHT22;12204;50.600;4.608;2022-11-12T03:00:06;21.40;82.50
22416;DHT22;12204;50.600;4.608;2022-11-12T03:05:32;21.50;82.50
22416;DHT22;12204;50.600;4.608;2022-11-12T03:10:57;21.40;82.20
22416;DHT22;12204;50.600;4.608;2022-11-12T03:16:19;21.40;82.60
22416;DHT22;12204;50.600;4.608;2022-11-12T03:21:41;21.40;82.80
22416;DHT22;12204;50.600;4.608;2022-11-12T03:27:04;21.40;82.20
22416;DHT22;12204;50.600;4.608;2022-11-12T03:32:27;21.40;82.00
22416;DHT22;12204;50.600;4.608;2022-11-12T03:37:49;21.40;82.40
22416;DHT22;12204;50.600;4.608;2022-11-12T03:43:12;21.40;82.50
22416;DHT22;12204;50.600;4.608;2022-11-12T03:48:34;21.40;82.40
22416;DHT22;12204;50.600;4.608;2022-11-12T03:53:56;21.40;82.20
22416;DHT22;12204;50.600;4.608;2022-11-12T03:59:19;21.30;82.00
22416;DHT22;12204;50.600;4.608;2022-11-12T04:04:42;21.40;82.00
22416;DHT22;12204;50.600;4.608;2022-11-12T04:10:22;21.40;82.00
22416;DHT22;12204;50.600;4.608;2022-11-12T04:15:45;21.40;82.10
22416;DHT22;12204;50.600;4.608;2022-11-12T04:21:31;21.40;81.90
22416;DHT22;12204;50.600;4.608;2022-11-12T04:27:15;21.40;81.90
22416;DHT22;12204;50.600;4.608;2022-11-12T04:32:45;21.30;81.90
22416;DHT22;12204;50.600;4.608;2022-11-12T04:38:09;21.30;81.90
22416;DHT22;12204;50.600;4.608;2022-11-12T04:43:31;21.30;81.50
22416;DHT22;12204;50.600;4.608;2022-11-12T04:49:12;21.30;82.00
22416;DHT22;12204;50.600;4.608;2022-11-12T04:54:34;21.30;81.60
22416;DHT22;12204;50.600;4.608;2022-11-12T04:59:56;21.30;81.60
22416;DHT22;12204;50.600;4.608;2022-11-12T05:05:20;21.30;81.80
22416;DHT22;12204;50.600;4.608;2022-11-12T05:10:43;21.30;81.70
22416;DHT22;12204;50.600;4.608;2022-11-12T05:16:05;21.30;81.80
22416;DHT22;12204;50.600;4.608;2022-11-12T05:21:29;21.20;81.50
22416;DHT22;12204;50.600;4.608;2022-11-12T05:27:10;21.20;81.60
22416;DHT22;12204;50.600;4.608;2022-11-12T05:32:35;21.20;81.60
22416;DHT22;12204;50.600;4.608;2022-11-12T05:37:58;21.30;81.10
22416;DHT22;12204;50.600;4.608;2022-11-12T05:43:20;21.20;80.60
22416;DHT22;12204;50.600;4.608;2022-11-12T05:48:42;21.30;80.60
22416;DHT22;12204;50.600;4.608;2022-11-12T05:54:06;21.30;80.30
22416;DHT22;12204;50.600;4.608;2022-11-12T05:59:28;21.40;80.30
22416;DHT22;12204;50.600;4.608;2022-11-12T06:04:50;21.40;80.20
22416;DHT22;12204;50.600;4.608;2022-11-12T06:10:14;21.40;80.10
22416;DHT22;12204;50.600;4.608;2022-11-12T06:15:40;21.50;80.40
22416;DHT22;12204;50.600;4.608;2022-11-12T06:21:03;21.50;80.10
22416;DHT22;12204;50.600;4.608;2022-11-12T06:26:44;21.50;80.00
22416;DHT22;12204;50.600;4.608;2022-11-12T06:32:06;21.50;79.80
22416;DHT22;12204;50.600;4.608;2022-11-12T06:37:28;21.50;79.80
22416;DHT22;12204;50.600;4.608;2022-11-12T06:42:56;21.60;79.90
22416;DHT22;12204;50.600;4.608;2022-11-12T06:48:19;21.60;79.80
22416;DHT22;12204;50.600;4.608;2022-11-12T06:53:41;21.60;79.80
22416;DHT22;12204;50.600;4.608;2022-11-12T06:59:04;21.70;79.70
22416;DHT22;12204;50.600;4.608;2022-11-12T07:04:26;21.70;79.80
22416;DHT22;12204;50.600;4.608;2022-11-12T07:09:48;21.70;79.60
22416;DHT22;12204;50.600;4.608;2022-11-12T07:15:12;21.70;79.60
22416;DHT22;12204;50.600;4.608;2022-11-12T07:20:34;21.70;79.60
22416;DHT22;12204;50.600;4.608;2022-11-12T07:25:59;21.70;79.60
22416;DHT22;12204;50.600;4.608;2022-11-12T07:31:24;21.70;79.50
22416;DHT22;12204;50.600;4.608;2022-11-12T07:36:47;21.70;79.60
22416;DHT22;12204;50.600;4.608;2022-11-12T07:42:10;21.70;79.60
22416;DHT22;12204;50.600;4.608;2022-11-12T07:47:34;21.70;79.50
22416;DHT22;12204;50.600;4.608;2022-11-12T07:52:57;21.70;79.30
22416;DHT22;12204;50.600;4.608;2022-11-12T07:58:19;21.70;79.50
22416;DHT22;12204;50.600;4.608;2022-11-12T08:03:44;21.70;79.50
22416;DHT22;12204;50.600;4.608;2022-11-12T08:09:06;21.70;79.30
22416;DHT22;12204;50.600;4.608;2022-11-12T08:14:30;21.70;79.70
22416;DHT22;12204;50.600;4.608;2022-11-12T08:19:53;21.60;79.20
22416;DHT22;12204;50.600;4.608;2022-11-12T08:25:16;21.40;78.40
22416;DHT22;12204;50.600;4.608;2022-11-12T08:30:39;21.40;77.50
22416;DHT22;12204;50.600;4.608;2022-11-12T08:36:03;21.20;76.70
22416;DHT22;12204;50.600;4.608;2022-11-12T08:41:27;21.20;75.90
22416;DHT22;12204;50.600;4.608;2022-11-12T08:46:50;21.20;76.30
22416;DHT22;12204;50.600;4.608;2022-11-12T08:52:14;21.10;75.70
22416;DHT22;12204;50.600;4.608;2022-11-12T08:57:39;21.10;75.00
22416;DHT22;12204;50.600;4.608;2022-11-12T09:03:04;21.00;74.30
22416;DHT22;12204;50.600;4.608;2022-11-12T09:08:29;20.90;73.90
22416;DHT22;12204;50.600;4.608;2022-11-12T09:13:54;20.90;73.60
22416;DHT22;12204;50.600;4.608;2022-11-12T09:19:16;20.90;73.70
22416;DHT22;12204;50.600;4.608;2022-11-12T09:24:40;20.90;73.90
22416;DHT22;12204;50.600;4.608;2022-11-12T09:30:02;20.90;73.30
22416;DHT22;12204;50.600;4.608;2022-11-12T09:35:26;20.80;72.90
22416;DHT22;12204;50.600;4.608;2022-11-12T09:41:12;20.80;72.90
22416;DHT22;12204;50.600;4.608;2022-11-12T09:46:43;20.80;72.70
22416;DHT22;12204;50.600;4.608;2022-11-12T09:52:15;20.70;72.40
22416;DHT22;12204;50.600;4.608;2022-11-12T09:57:42;20.70;72.40
22416;DHT22;12204;50.600;4.608;2022-11-12T10:03:06;20.70;72.30
22416;DHT22;12204;50.600;4.608;2022-11-12T10:08:40;20.70;72.80
22416;DHT22;12204;50.600;4.608;2022-11-12T10:14:15;20.70;73.10
22416;DHT22;12204;50.600;4.608;2022-11-12T10:19:52;20.70;74.00
22416;DHT22;12204;50.600;4.608;2022-11-12T10:25:23;20.70;74.50
22416;DHT22;12204;50.600;4.608;2022-11-12T10:30:48;20.70;75.00
22416;DHT22;12204;50.600;4.608;2022-11-12T10:36:17;20.70;75.40
22416;DHT22;12204;50.600;4.608;2022-11-12T10:41:45;20.70;75.50
22416;DHT22;12204;50.600;4.608;2022-11-12T10:47:26;20.70;75.90
22416;DHT22;12204;50.600;4.608;2022-11-12T10:52:53;20.70;76.20
22416;DHT22;12204;50.600;4.608;2022-11-12T10:58:17;20.60;76.40
22416;DHT22;12204;50.600;4.608;2022-11-12T11:03:55;20.60;76.50
22416;DHT22;12204;50.600;4.608;2022-11-12T11:09:18;20.60;76.70
22416;DHT22;12204;50.600;4.608;2022-11-12T11:14:41;20.60;77.00
22416;DHT22;12204;50.600;4.608;2022-11-12T11:20:15;20.60;77.00
22416;DHT22;12204;50.600;4.608;2022-11-12T11:25:42;20.60;77.10
22416;DHT22;12204;50.600;4.608;2022-11-12T11:31:14;20.60;77.40
22416;DHT22;12204;50.600;4.608;2022-11-12T11:36:52;20.60;77.50
22416;DHT22;12204;50.600;4.608;2022-11-12T11:42:23;20.60;77.60
22416;DHT22;12204;50.600;4.608;2022-11-12T11:48:10;20.60;77.80
22416;DHT22;12204;50.600;4.608;2022-11-12T11:53:46;20.60;77.90
22416;DHT22;12204;50.600;4.608;2022-11-12T11:59:29;20.60;77.90
22416;DHT22;12204;50.600;4.608;2022-11-12T12:05:07;20.60;78.00
22416;DHT22;12204;50.600;4.608;2022-11-12T12:10:55;20.60;78.20
22416;DHT22;12204;50.600;4.608;2022-11-12T12:16:41;20.60;78.20
22416;DHT22;12204;50.600;4.608;2022-11-12T12:22:14;20.60;78.20
22416;DHT22;12204;50.600;4.608;2022-11-12T12:27:49;20.60;78.40
22416;DHT22;12204;50.600;4.608;2022-11-12T12:33:24;20.60;78.50
22416;DHT22;12204;50.600;4.608;2022-11-12T12:38:52;20.50;78.40
22416;DHT22;12204;50.600;4.608;2022-11-12T12:44:19;20.50;79.20
22416;DHT22;12204;50.600;4.608;2022-11-12T12:50:05;20.50;78.50
22416;DHT22;12204;50.600;4.608;2022-11-12T12:55:38;20.50;78.50
22416;DHT22;12204;50.600;4.608;2022-11-12T13:01:07;20.50;78.60
22416;DHT22;12204;50.600;4.608;2022-11-12T13:06:34;20.50;78.60
22416;DHT22;12204;50.600;4.608;2022-11-12T13:11:59;20.60;78.80
22416;DHT22;12204;50.600;4.608;2022-11-12T13:17:49;20.60;79.40
22416;DHT22;12204;50.600;4.608;2022-11-12T13:23:43;20.50;79.20
22416;DHT22;12204;50.600;4.608;2022-11-12T13:29:43;20.60;79.30
22416;DHT22;12204;50.600;4.608;2022-11-12T13:35:29;20.60;79.20
22416;DHT22;12204;50.600;4.608;2022-11-12T13:40:57;20.60;79.20
22416;DHT22;12204;50.600;4.608;2022-11-12T13:46:44;20.60;79.10
22416;DHT22;12204;50.600;4.608;2022-11-12T13:52:12;20.60;79.10
22416;DHT22;12204;50.600;4.608;2022-11-12T13:57:36;20.60;79.00
22416;DHT22;12204;50.600;4.608;2022-11-12T14:03:02;20.60;78.90
22416;DHT22;12204;50.600;4.608;2022-11-12T14:08:45;20.70;79.00
22416;DHT22;12204;50.600;4.608;2022-11-12T14:14:40;20.70;78.80
22416;DHT22;12204;50.600;4.608;2022-11-12T14:20:23;20.70;78.70
22416;DHT22;12204;50.600;4.608;2022-11-12T14:25:53;20.70;78.70
22416;DHT22;12204;50.600;4.608;2022-11-12T14:31:23;20.70;78.60
22416;DHT22;12204;50.600;4.608;2022-11-12T14:36:46;20.70;78.60
22416;DHT22;12204;50.600;4.608;2022-11-12T14:42:14;20.70;78.60
22416;DHT22;12204;50.600;4.608;2022-11-12T14:47:36;20.70;79.40
22416;DHT22;12204;50.600;4.608;2022-11-12T14:53:02;20.80;78.70
22416;DHT22;12204;50.600;4.608;2022-11-12T14:58:28;20.80;78.70
22416;DHT22;12204;50.600;4.608;2022-11-12T15:03:51;20.80;78.70
22416;DHT22;12204;50.600;4.608;2022-11-12T15:09:36;20.80;78.70
22416;DHT22;12204;50.600;4.608;2022-11-12T15:15:07;20.80;78.70
22416;DHT22;12204;50.600;4.608;2022-11-12T15:20:31;20.80;78.80
22416;DHT22;12204;50.600;4.608;2022-11-12T15:25:57;20.80;78.70
22416;DHT22;12204;50.600;4.608;2022-11-12T15:31:21;20.80;78.90
22416;DHT22;12204;50.600;4.608;2022-11-12T15:36:43;20.80;78.90
22416;DHT22;12204;50.600;4.608;2022-11-12T15:42:14;20.80;78.90
22416;DHT22;12204;50.600;4.608;2022-11-12T15:47:39;20.80;79.00
22416;DHT22;12204;50.600;4.608;2022-11-12T15:53:02;20.70;79.00
22416;DHT22;12204;50.600;4.608;2022-11-12T15:58:29;20.70;79.10
22416;DHT22;12204;50.600;4.608;2022-11-12T16:03:54;20.70;79.20
22416;DHT22;12204;50.600;4.608;2022-11-12T16:09:17;20.70;79.20
22416;DHT22;12204;50.600;4.608;2022-11-12T16:14:39;20.70;79.30
22416;DHT22;12204;50.600;4.608;2022-11-12T16:20:12;20.70;79.30
22416;DHT22;12204;50.600;4.608;2022-11-12T16:25:37;20.70;79.40
22416;DHT22;12204;50.600;4.608;2022-11-12T16:31:01;20.60;79.50
22416;DHT22;12204;50.600;4.608;2022-11-12T16:36:25;20.70;79.50
22416;DHT22;12204;50.600;4.608;2022-11-12T16:41:47;20.60;79.60
22416;DHT22;12204;50.600;4.608;2022-11-12T16:47:10;20.60;79.60
22416;DHT22;12204;50.600;4.608;2022-11-12T16:52:33;20.70;80.20
22416;DHT22;12204;50.600;4.608;2022-11-12T16:57:55;20.70;79.70
22416;DHT22;12204;50.600;4.608;2022-11-12T17:03:18;20.80;79.60
22416;DHT22;12204;50.600;4.608;2022-11-12T17:08:41;20.80;79.60
22416;DHT22;12204;50.600;4.608;2022-11-12T17:14:05;20.70;79.00
22416;DHT22;12204;50.600;4.608;2022-11-12T17:19:27;20.70;78.80
22416;DHT22;12204;50.600;4.608;2022-11-12T17:24:51;20.70;78.60
22416;DHT22;12204;50.600;4.608;2022-11-12T17:30:13;20.70;79.10
22416;DHT22;12204;50.600;4.608;2022-11-12T17:35:36;20.60;77.80
22416;DHT22;12204;50.600;4.608;2022-11-12T17:41:00;20.60;77.40
22416;DHT22;12204;50.600;4.608;2022-11-12T17:46:22;20.70;78.60
22416;DHT22;12204;50.600;4.608;2022-11-12T17:51:45;20.70;78.60
22416;DHT22;12204;50.600;4.608;2022-11-12T17:57:09;20.70;79.40
22416;DHT22;12204;50.600;4.608;2022-11-12T18:02:32;20.60;78.70
22416;DHT22;12204;50.600;4.608;2022-11-12T18:07:55;20.70;79.60
22416;DHT22;12204;50.600;4.608;2022-11-12T18:13:19;20.60;79.70
22416;DHT22;12204;50.600;4.608;2022-11-12T18:18:42;20.60;79.80
22416;DHT22;12204;50.600;4.608;2022-11-12T18:24:10;20.70;80.50
22416;DHT22;12204;50.600;4.608;2022-11-12T18:29:36;20.70;81.00
22416;DHT22;12204;50.600;4.608;2022-11-12T18:34:59;20.70;81.10
22416;DHT22;12204;50.600;4.608;2022-11-12T18:40:22;20.60;81.10
22416;DHT22;12204;50.600;4.608;2022-11-12T18:45:52;20.60;81.10
22416;DHT22;12204;50.600;4.608;2022-11-12T18:51:17;20.60;81.00
22416;DHT22;12204;50.600;4.608;2022-11-12T18:56:39;20.60;81.00
22416;DHT22;12204;50.600;4.608;2022-11-12T19:02:03;20.60;81.00
22416;DHT22;12204;50.600;4.608;2022-11-12T19:07:26;20.60;81.00
22416;DHT22;12204;50.600;4.608;2022-11-12T19:12:49;20.60;80.90
22416;DHT22;12204;50.600;4.608;2022-11-12T19:18:14;20.80;81.20
22416;DHT22;12204;50.600;4.608;2022-11-12T19:23:36;21.20;79.90
22416;DHT22;12204;50.600;4.608;2022-11-12T19:29:01;21.50;79.00
22416;DHT22;12204;50.600;4.608;2022-11-12T19:34:25;21.60;78.50
22416;DHT22;12204;50.600;4.608;2022-11-12T19:39:47;21.70;78.30
22416;DHT22;12204;50.600;4.608;2022-11-12T19:45:10;21.70;78.30
22416;DHT22;12204;50.600;4.608;2022-11-12T19:50:34;21.70;78.30
22416;DHT22;12204;50.600;4.608;2022-11-12T19:55:58;21.70;78.40
22416;DHT22;12204;50.600;4.608;2022-11-12T20:01:21;21.70;78.50
22416;DHT22;12204;50.600;4.608;2022-11-12T20:06:45;21.60;78.80
22416;DHT22;12204;50.600;4.608;2022-11-12T20:12:07;21.60;79.20
22416;DHT22;12204;50.600;4.608;2022-11-12T20:17:31;21.60;79.20
22416;DHT22;12204;50.600;4.608;2022-11-12T20:22:55;21.60;79.20
22416;DHT22;12204;50.600;4.608;2022-11-12T20:28:17;21.50;79.10
22416;DHT22;12204;50.600;4.608;2022-11-12T20:33:40;21.50;79.40
22416;DHT22;12204;50.600;4.608;2022-11-12T20:39:04;21.50;79.60
22416;DHT22;12204;50.600;4.608;2022-11-12T20:44:27;21.50;79.70
22416;DHT22;12204;50.600;4.608;2022-11-12T20:49:49;21.40;79.80
22416;DHT22;12204;50.600;4.608;2022-11-12T20:55:13;21.40;79.80
22416;DHT22;12204;50.600;4.608;2022-11-12T21:00:35;21.40;80.00
22416;DHT22;12204;50.600;4.608;2022-11-12T21:05:58;21.40;80.00
22416;DHT22;12204;50.600;4.608;2022-11-12T21:11:24;21.30;80.00
22416;DHT22;12204;50.600;4.608;2022-11-12T21:16:46;21.30;80.20
22416;DHT22;12204;50.600;4.608;2022-11-12T21:22:09;21.30;80.20
22416;DHT22;12204;50.600;4.608;2022-11-12T21:27:35;21.30;80.60
22416;DHT22;12204;50.600;4.608;2022-11-12T21:32:58;21.20;81.30
22416;DHT22;12204;50.600;4.608;2022-11-12T21:38:21;21.20;80.70
22416;DHT22;12204;50.600;4.608;2022-11-12T21:43:46;21.20;80.80
22416;DHT22;12204;50.600;4.608;2022-11-12T21:49:09;21.20;80.70
22416;DHT22;12204;50.600;4.608;2022-11-12T21:54:31;21.20;80.80
22416;DHT22;12204;50.600;4.608;2022-11-12T21:59:55;21.10;80.70
22416;DHT22;12204;50.600;4.608;2022-11-12T22:05:37;21.10;80.90
22416;DHT22;12204;50.600;4.608;2022-11-12T22:11:01;21.10;80.90
22416;DHT22;12204;50.600;4.608;2022-11-12T22:16:26;21.10;80.90
22416;DHT22;12204;50.600;4.608;2022-11-12T22:21:49;21.10;81.00
22416;DHT22;12204;50.600;4.608;2022-11-12T22:27:12;21.10;81.10
22416;DHT22;12204;50.600;4.608;2022-11-12T22:32:36;21.10;81.10
22416;DHT22;12204;50.600;4.608;2022-11-12T22:37:58;21.10;81.00
22416;DHT22;12204;50.600;4.608;2022-11-12T22:43:20;21.10;81.10
22416;DHT22;12204;50.600;4.608;2022-11-12T22:48:45;21.10;81.00
22416;DHT22;12204;50.600;4.608;2022-11-12T22:54:08;21.10;81.00
22416;DHT22;12204;50.600;4.608;2022-11-12T22:59:34;21.10;81.00
22416;DHT22;12204;50.600;4.608;2022-11-12T23:04:58;21.10;81.10
22416;DHT22;12204;50.600;4.608;2022-11-12T23:10:21;21.10;81.10
22416;DHT22;12204;50.600;4.608;2022-11-12T23:15:43;21.20;83.20
22416;DHT22;12204;50.600;4.608;2022-11-12T23:21:10;21.30;83.50
22416;DHT22;12204;50.600;4.608;2022-11-12T23:26:34;21.40;83.40
22416;DHT22;12204;50.600;4.608;2022-11-12T23:31:56;21.40;83.30
22416;DHT22;12204;50.600;4.608;2022-11-12T23:37:20;21.40;83.10
22416;DHT22;12204;50.600;4.608;2022-11-12T23:42:42;21.50;83.00
22416;DHT22;12204;50.600;4.608;2022-11-12T23:48:05;21.50;82.90
22416;DHT22;12204;50.600;4.608;2022-11-12T23:53:28;21.50;82.80
22416;DHT22;12204;50.600;4.608;2022-11-12T23:58:52;21.50;82.70
